Rio Rancho, NM (87124)

5:00 PM MDT on May 30, 2015 (GMT -0600)
Western Hills | | Change Station
CLOSE
Current Station
Personal Weather Station
Location: Rio Rancho, NM
Elevation: 5486 ft
Nearby Weather Stations

Elev 5486 ft 35.26 °N, 106.69 °W | Updated 21 seconds ago

Partly Cloudy
Partly Cloudy
82.8 °F
Feels Like 81 °F
N
3.1
Wind Variable Wind from SE
Gusts 4.5 mph

Today
High -- | Low -- °F
--% Chance of Precip.
Yesterday
High -- | Low -- °F
Precip. -- in
5:54 AM 8:14 PM
Waxing Gibbous, 92% visible
Pressure 30.21 in
Visibility 10.0 miles
Clouds Scattered Clouds 9000 ft
Heat Index 81 °F
Dew Point 44 °F
Humidity 26%
Rainfall 0.00 in
Snow Depth Not available.
UV 4 out of 12
Pollen 3.90 out of 12
Air Quality Not available.
Flu Activity Sporadic
METAR KAEG 302250Z VRB05KT 10SM SCT090 26/06 A3021

More Conditions Fewer Conditions

Pressure 30.21 in
Visibility 10.0 miles
Clouds Scattered Clouds 9000 ft
Heat Index 81 °F
Dew Point 44 °F
Humidity 26%
Rainfall 0.00 in
Snow Depth Not available.
UV 4 out of 12
Pollen 3.90 out of 12
Air Quality Not available.
Flu Activity Sporadic
METAR KAEG 302250Z VRB05KT 10SM SCT090 26/06 A3021

More Conditions Fewer Conditions

Nowcast | as of 3:38 PM MDT on May 30, 2015

Through 6 PM MDT...isolated showers and thunderstorms will continue to develop across the western higher terrain along and east of the Continental Divide and move southeast at 10 to 15 mph across surrounding Highlands and into the Rio Grande Valley between Taos... Santa Fe...Albuquerque and Socorro. Expect moderate rain with brief heavy downpours to produce amounts less than two tenths of an inch. In addition...occasional lightning...small hail and wind gusts to 45 mph are likely with the storms. Look for this activity to diminish shortly after sunset.

×

10-Day Weather Forecast

Almanac

Astronomy

May. 30, 2015 Rise Set
Actual Time
Civil Twilight
Nautical Twilight
Astronomical Twilight
Moon
Length of Visible Light
Length of Day
Tomorrow will be .
, % of the Moon is Illuminated

Today's Extremes

State Highs State Lows

Community

WunderPhotos

Upload Photos

1,825,594 photos uploaded!

WunderBlogs® & News

Nearby

Air Quality

  Air Quality AQ Index Pollutant
Not available.

Snow Depth

Station Depth Elevation

Earthquake Activity

City Distance Mag. Time & Date
Minimum magnitude displayed is 2.5.

Coastal Water Temperatures

Place Temperature

Stations

Nearby Weather Stations

Station Location Temp. Windchill Dew Point Humidity Wind Precip. Elev Updated Type